sensor_id;sensor_type;location;lat;lon;timestamp;P1;durP1;ratioP1;P2;durP2;ratioP2
22963;SDS011;11648;49.306;6.934;2022-08-19T00:02:00;19.83;;;17.73;;
22963;SDS011;11648;49.306;6.934;2022-08-19T00:04:29;18.87;;;16.97;;
22963;SDS011;11648;49.306;6.934;2022-08-19T00:06:59;19.73;;;17.13;;
22963;SDS011;11648;49.306;6.934;2022-08-19T00:09:27;18.53;;;16.73;;
22963;SDS011;11648;49.306;6.934;2022-08-19T00:11:55;19.47;;;17.53;;
22963;SDS011;11648;49.306;6.934;2022-08-19T00:14:24;19.53;;;17.43;;
22963;SDS011;11648;49.306;6.934;2022-08-19T00:16:52;20.20;;;18.10;;
22963;SDS011;11648;49.306;6.934;2022-08-19T00:19:21;19.50;;;17.40;;
22963;SDS011;11648;49.306;6.934;2022-08-19T00:21:48;18.93;;;16.93;;
22963;SDS011;11648;49.306;6.934;2022-08-19T00:24:15;19.27;;;17.27;;
22963;SDS011;11648;49.306;6.934;2022-08-19T00:26:43;18.00;;;16.20;;
22963;SDS011;11648;49.306;6.934;2022-08-19T00:29:13;18.70;;;16.80;;
22963;SDS011;11648;49.306;6.934;2022-08-19T00:31:41;19.70;;;17.60;;
22963;SDS011;11648;49.306;6.934;2022-08-19T00:34:09;19.77;;;17.67;;
22963;SDS011;11648;49.306;6.934;2022-08-19T00:36:38;21.17;;;18.97;;
22963;SDS011;11648;49.306;6.934;2022-08-19T00:39:05;20.60;;;18.60;;
22963;SDS011;11648;49.306;6.934;2022-08-19T00:41:32;20.50;;;18.33;;
22963;SDS011;11648;49.306;6.934;2022-08-19T00:44:13;18.83;;;16.83;;
22963;SDS011;11648;49.306;6.934;2022-08-19T00:46:43;20.83;;;18.63;;
22963;SDS011;11648;49.306;6.934;2022-08-19T00:49:37;21.73;;;18.70;;
22963;SDS011;11648;49.306;6.934;2022-08-19T00:52:17;20.27;;;18.10;;
22963;SDS011;11648;49.306;6.934;2022-08-19T00:54:50;19.87;;;17.77;;
22963;SDS011;11648;49.306;6.934;2022-08-19T00:57:20;19.47;;;17.33;;
22963;SDS011;11648;49.306;6.934;2022-08-19T00:59:54;19.47;;;17.37;;
22963;SDS011;11648;49.306;6.934;2022-08-19T01:02:29;19.03;;;17.03;;
22963;SDS011;11648;49.306;6.934;2022-08-19T01:04:57;19.43;;;17.43;;
22963;SDS011;11648;49.306;6.934;2022-08-19T01:07:25;19.03;;;17.13;;
22963;SDS011;11648;49.306;6.934;2022-08-19T01:09:52;18.17;;;16.10;;
22963;SDS011;11648;49.306;6.934;2022-08-19T01:12:20;18.37;;;16.43;;
22963;SDS011;11648;49.306;6.934;2022-08-19T01:14:47;19.03;;;16.90;;
22963;SDS011;11648;49.306;6.934;2022-08-19T01:17:15;19.10;;;17.10;;
22963;SDS011;11648;49.306;6.934;2022-08-19T01:19:43;19.47;;;17.37;;
22963;SDS011;11648;49.306;6.934;2022-08-19T01:22:16;19.77;;;17.60;;
22963;SDS011;11648;49.306;6.934;2022-08-19T01:25:06;18.97;;;17.07;;
22963;SDS011;11648;49.306;6.934;2022-08-19T01:27:41;18.33;;;16.43;;
22963;SDS011;11648;49.306;6.934;2022-08-19T01:30:13;19.13;;;17.03;;
22963;SDS011;11648;49.306;6.934;2022-08-19T01:32:43;19.20;;;17.30;;
22963;SDS011;11648;49.306;6.934;2022-08-19T01:35:10;18.03;;;16.10;;
22963;SDS011;11648;49.306;6.934;2022-08-19T01:37:45;17.57;;;15.63;;
22963;SDS011;11648;49.306;6.934;2022-08-19T01:40:13;19.03;;;17.23;;
22963;SDS011;11648;49.306;6.934;2022-08-19T01:42:40;19.88;;;17.98;;
22963;SDS011;11648;49.306;6.934;2022-08-19T01:45:07;18.77;;;16.83;;
22963;SDS011;11648;49.306;6.934;2022-08-19T01:47:35;18.13;;;16.33;;
22963;SDS011;11648;49.306;6.934;2022-08-19T01:50:04;18.77;;;16.73;;
22963;SDS011;11648;49.306;6.934;2022-08-19T01:52:34;17.53;;;15.73;;
22963;SDS011;11648;49.306;6.934;2022-08-19T01:55:03;17.47;;;15.53;;
22963;SDS011;11648;49.306;6.934;2022-08-19T01:57:33;17.93;;;16.03;;
22963;SDS011;11648;49.306;6.934;2022-08-19T02:00:00;16.50;;;14.70;;
22963;SDS011;11648;49.306;6.934;2022-08-19T02:02:37;17.80;;;15.93;;
22963;SDS011;11648;49.306;6.934;2022-08-19T02:05:04;17.90;;;16.10;;
22963;SDS011;11648;49.306;6.934;2022-08-19T02:07:37;17.63;;;15.93;;
22963;SDS011;11648;49.306;6.934;2022-08-19T02:10:08;17.10;;;15.37;;
22963;SDS011;11648;49.306;6.934;2022-08-19T02:12:42;18.07;;;15.67;;
22963;SDS011;11648;49.306;6.934;2022-08-19T02:15:09;16.83;;;15.07;;
22963;SDS011;11648;49.306;6.934;2022-08-19T02:17:36;16.63;;;14.93;;
22963;SDS011;11648;49.306;6.934;2022-08-19T02:20:03;16.73;;;14.93;;
22963;SDS011;11648;49.306;6.934;2022-08-19T02:22:31;16.77;;;14.97;;
22963;SDS011;11648;49.306;6.934;2022-08-19T02:24:58;15.80;;;14.13;;
22963;SDS011;11648;49.306;6.934;2022-08-19T02:27:26;16.60;;;14.67;;
22963;SDS011;11648;49.306;6.934;2022-08-19T02:29:53;14.33;;;12.87;;
22963;SDS011;11648;49.306;6.934;2022-08-19T02:32:19;15.93;;;14.33;;
22963;SDS011;11648;49.306;6.934;2022-08-19T02:34:47;14.63;;;13.10;;
22963;SDS011;11648;49.306;6.934;2022-08-19T02:37:14;16.23;;;13.33;;
22963;SDS011;11648;49.306;6.934;2022-08-19T02:40:00;14.60;;;13.10;;
22963;SDS011;11648;49.306;6.934;2022-08-19T02:42:28;14.30;;;12.73;;
22963;SDS011;11648;49.306;6.934;2022-08-19T02:44:55;16.20;;;14.60;;
22963;SDS011;11648;49.306;6.934;2022-08-19T02:47:22;16.73;;;15.10;;
22963;SDS011;11648;49.306;6.934;2022-08-19T02:49:49;17.30;;;15.57;;
22963;SDS011;11648;49.306;6.934;2022-08-19T02:52:16;15.80;;;14.20;;
22963;SDS011;11648;49.306;6.934;2022-08-19T02:54:43;19.40;;;17.40;;
22963;SDS011;11648;49.306;6.934;2022-08-19T02:57:10;20.73;;;18.63;;
22963;SDS011;11648;49.306;6.934;2022-08-19T02:59:37;19.30;;;17.20;;
22963;SDS011;11648;49.306;6.934;2022-08-19T03:02:04;21.63;;;17.53;;
22963;SDS011;11648;49.306;6.934;2022-08-19T03:04:30;19.70;;;17.60;;
22963;SDS011;11648;49.306;6.934;2022-08-19T03:06:57;20.50;;;17.40;;
22963;SDS011;11648;49.306;6.934;2022-08-19T03:09:37;18.30;;;16.40;;
22963;SDS011;11648;49.306;6.934;2022-08-19T03:12:04;17.70;;;15.90;;
22963;SDS011;11648;49.306;6.934;2022-08-19T03:14:32;17.83;;;15.97;;
22963;SDS011;11648;49.306;6.934;2022-08-19T03:17:01;17.83;;;15.97;;
22963;SDS011;11648;49.306;6.934;2022-08-19T03:19:31;17.40;;;15.57;;
22963;SDS011;11648;49.306;6.934;2022-08-19T03:21:57;19.10;;;16.17;;
22963;SDS011;11648;49.306;6.934;2022-08-19T03:24:24;18.47;;;16.57;;
22963;SDS011;11648;49.306;6.934;2022-08-19T03:26:52;17.40;;;15.50;;
22963;SDS011;11648;49.306;6.934;2022-08-19T03:29:24;19.30;;;17.20;;
22963;SDS011;11648;49.306;6.934;2022-08-19T03:32:00;17.67;;;15.87;;
22963;SDS011;11648;49.306;6.934;2022-08-19T03:34:30;19.57;;;16.20;;
22963;SDS011;11648;49.306;6.934;2022-08-19T03:36:59;18.57;;;16.67;;
22963;SDS011;11648;49.306;6.934;2022-08-19T03:39:31;16.53;;;14.83;;
22963;SDS011;11648;49.306;6.934;2022-08-19T03:41:58;18.30;;;15.93;;
22963;SDS011;11648;49.306;6.934;2022-08-19T03:44:48;18.37;;;16.43;;
22963;SDS011;11648;49.306;6.934;2022-08-19T03:47:15;18.60;;;16.20;;
22963;SDS011;11648;49.306;6.934;2022-08-19T03:49:43;17.60;;;15.80;;
22963;SDS011;11648;49.306;6.934;2022-08-19T03:52:10;18.30;;;16.40;;
22963;SDS011;11648;49.306;6.934;2022-08-19T03:54:37;17.80;;;15.93;;
22963;SDS011;11648;49.306;6.934;2022-08-19T03:57:04;18.10;;;16.20;;
22963;SDS011;11648;49.306;6.934;2022-08-19T03:59:32;18.17;;;16.27;;
22963;SDS011;11648;49.306;6.934;2022-08-19T04:02:01;18.03;;;16.23;;
22963;SDS011;11648;49.306;6.934;2022-08-19T04:04:35;19.43;;;16.20;;
22963;SDS011;11648;49.306;6.934;2022-08-19T04:07:06;16.20;;;14.50;;
22963;SDS011;11648;49.306;6.934;2022-08-19T04:09:35;15.57;;;13.97;;
22963;SDS011;11648;49.306;6.934;2022-08-19T04:12:03;16.13;;;13.90;;
22963;SDS011;11648;49.306;6.934;2022-08-19T04:14:31;16.67;;;14.90;;
22963;SDS011;11648;49.306;6.934;2022-08-19T04:16:59;16.37;;;14.63;;
22963;SDS011;11648;49.306;6.934;2022-08-19T04:19:29;16.23;;;14.63;;
22963;SDS011;11648;49.306;6.934;2022-08-19T04:21:56;16.93;;;15.13;;
22963;SDS011;11648;49.306;6.934;2022-08-19T04:24:22;16.40;;;14.73;;
22963;SDS011;11648;49.306;6.934;2022-08-19T04:26:49;16.23;;;14.63;;
22963;SDS011;11648;49.306;6.934;2022-08-19T04:29:18;15.60;;;14.00;;
22963;SDS011;11648;49.306;6.934;2022-08-19T04:31:48;16.20;;;14.40;;
22963;SDS011;11648;49.306;6.934;2022-08-19T04:34:17;15.53;;;14.00;;
22963;SDS011;11648;49.306;6.934;2022-08-19T04:36:48;17.37;;;14.63;;
22963;SDS011;11648;49.306;6.934;2022-08-19T04:39:20;15.90;;;14.30;;
22963;SDS011;11648;49.306;6.934;2022-08-19T04:41:49;16.00;;;14.40;;
22963;SDS011;11648;49.306;6.934;2022-08-19T04:44:35;17.03;;;14.77;;
22963;SDS011;11648;49.306;6.934;2022-08-19T04:47:11;17.40;;;15.60;;
22963;SDS011;11648;49.306;6.934;2022-08-19T04:49:38;16.90;;;15.20;;
22963;SDS011;11648;49.306;6.934;2022-08-19T04:52:05;16.70;;;15.00;;
22963;SDS011;11648;49.306;6.934;2022-08-19T04:54:32;16.47;;;14.77;;
22963;SDS011;11648;49.306;6.934;2022-08-19T04:57:04;16.40;;;14.80;;
22963;SDS011;11648;49.306;6.934;2022-08-19T04:59:35;16.23;;;14.53;;
22963;SDS011;11648;49.306;6.934;2022-08-19T05:02:03;16.67;;;15.07;;
22963;SDS011;11648;49.306;6.934;2022-08-19T05:04:30;19.13;;;15.00;;
22963;SDS011;11648;49.306;6.934;2022-08-19T05:07:00;17.53;;;15.63;;
22963;SDS011;11648;49.306;6.934;2022-08-19T05:09:28;20.20;;;15.40;;
22963;SDS011;11648;49.306;6.934;2022-08-19T05:12:16;16.70;;;15.00;;
22963;SDS011;11648;49.306;6.934;2022-08-19T05:14:43;16.37;;;13.47;;
22963;SDS011;11648;49.306;6.934;2022-08-19T05:17:12;16.90;;;15.20;;
22963;SDS011;11648;49.306;6.934;2022-08-19T05:19:59;15.27;;;13.73;;
22963;SDS011;11648;49.306;6.934;2022-08-19T05:22:45;16.13;;;14.47;;
22963;SDS011;11648;49.306;6.934;2022-08-19T05:25:16;14.57;;;13.07;;
22963;SDS011;11648;49.306;6.934;2022-08-19T05:27:47;15.47;;;13.90;;
22963;SDS011;11648;49.306;6.934;2022-08-19T05:30:14;15.97;;;14.37;;
22963;SDS011;11648;49.306;6.934;2022-08-19T05:32:42;13.87;;;12.37;;
22963;SDS011;11648;49.306;6.934;2022-08-19T05:35:09;15.00;;;13.50;;
22963;SDS011;11648;49.306;6.934;2022-08-19T05:37:36;15.27;;;13.70;;
22963;SDS011;11648;49.306;6.934;2022-08-19T05:40:03;15.57;;;13.97;;
22963;SDS011;11648;49.306;6.934;2022-08-19T05:42:30;15.00;;;13.20;;
22963;SDS011;11648;49.306;6.934;2022-08-19T05:44:57;15.70;;;14.07;;
22963;SDS011;11648;49.306;6.934;2022-08-19T05:47:24;15.77;;;13.33;;
22963;SDS011;11648;49.306;6.934;2022-08-19T05:49:51;14.77;;;13.37;;
22963;SDS011;11648;49.306;6.934;2022-08-19T05:52:18;15.03;;;13.53;;
22963;SDS011;11648;49.306;6.934;2022-08-19T05:54:52;14.73;;;13.23;;
22963;SDS011;11648;49.306;6.934;2022-08-19T05:57:22;15.37;;;13.77;;
22963;SDS011;11648;49.306;6.934;2022-08-19T05:59:50;14.77;;;13.37;;
22963;SDS011;11648;49.306;6.934;2022-08-19T06:02:27;15.23;;;13.73;;
22963;SDS011;11648;49.306;6.934;2022-08-19T06:04:54;14.87;;;13.37;;
22963;SDS011;11648;49.306;6.934;2022-08-19T06:07:21;16.27;;;12.90;;
22963;SDS011;11648;49.306;6.934;2022-08-19T06:09:48;14.00;;;12.60;;
22963;SDS011;11648;49.306;6.934;2022-08-19T06:12:33;14.10;;;12.73;;
22963;SDS011;11648;49.306;6.934;2022-08-19T06:15:11;14.77;;;13.03;;
22963;SDS011;11648;49.306;6.934;2022-08-19T06:17:40;15.30;;;13.73;;
22963;SDS011;11648;49.306;6.934;2022-08-19T06:20:09;14.40;;;12.90;;
22963;SDS011;11648;49.306;6.934;2022-08-19T06:22:40;14.90;;;13.40;;
22963;SDS011;11648;49.306;6.934;2022-08-19T06:25:08;15.33;;;13.80;;
22963;SDS011;11648;49.306;6.934;2022-08-19T06:27:36;14.80;;;13.30;;
22963;SDS011;11648;49.306;6.934;2022-08-19T06:30:14;15.27;;;12.93;;
22963;SDS011;11648;49.306;6.934;2022-08-19T06:32:41;13.70;;;12.30;;
22963;SDS011;11648;49.306;6.934;2022-08-19T06:35:08;13.77;;;12.23;;
22963;SDS011;11648;49.306;6.934;2022-08-19T06:37:36;14.40;;;13.00;;
22963;SDS011;11648;49.306;6.934;2022-08-19T06:40:08;12.87;;;11.43;;
22963;SDS011;11648;49.306;6.934;2022-08-19T06:42:37;12.90;;;11.60;;
22963;SDS011;11648;49.306;6.934;2022-08-19T06:45:20;13.13;;;11.83;;
22963;SDS011;11648;49.306;6.934;2022-08-19T06:47:51;11.80;;;10.57;;
22963;SDS011;11648;49.306;6.934;2022-08-19T06:50:25;11.30;;;10.20;;
22963;SDS011;11648;49.306;6.934;2022-08-19T06:52:52;14.20;;;10.60;;
22963;SDS011;11648;49.306;6.934;2022-08-19T06:55:19;11.27;;;10.07;;
22963;SDS011;11648;49.306;6.934;2022-08-19T06:57:46;11.70;;;10.40;;
22963;SDS011;11648;49.306;6.934;2022-08-19T07:00:14;11.63;;;10.00;;
22963;SDS011;11648;49.306;6.934;2022-08-19T07:02:41;10.53;;;9.53;;
22963;SDS011;11648;49.306;6.934;2022-08-19T07:05:18;10.97;;;9.17;;
22963;SDS011;11648;49.306;6.934;2022-08-19T07:07:45;9.67;;;8.67;;
22963;SDS011;11648;49.306;6.934;2022-08-19T07:10:13;11.93;;;8.77;;
22963;SDS011;11648;49.306;6.934;2022-08-19T07:12:40;10.05;;;8.68;;
22963;SDS011;11648;49.306;6.934;2022-08-19T07:15:07;9.82;;;8.93;;
22963;SDS011;11648;49.306;6.934;2022-08-19T07:17:37;10.25;;;8.77;;
22963;SDS011;11648;49.306;6.934;2022-08-19T07:20:07;10.20;;;9.10;;
22963;SDS011;11648;49.306;6.934;2022-08-19T07:22:39;9.85;;;8.80;;
22963;SDS011;11648;49.306;6.934;2022-08-19T07:25:07;10.43;;;8.63;;
22963;SDS011;11648;49.306;6.934;2022-08-19T07:27:35;9.93;;;8.93;;
22963;SDS011;11648;49.306;6.934;2022-08-19T07:30:05;9.60;;;8.60;;
22963;SDS011;11648;49.306;6.934;2022-08-19T07:32:37;9.85;;;8.85;;
22963;SDS011;11648;49.306;6.934;2022-08-19T07:35:05;9.40;;;8.50;;
22963;SDS011;11648;49.306;6.934;2022-08-19T07:37:33;11.20;;;8.63;;
22963;SDS011;11648;49.306;6.934;2022-08-19T07:40:02;9.70;;;7.97;;
22963;SDS011;11648;49.306;6.934;2022-08-19T07:42:30;11.35;;;8.23;;
22963;SDS011;11648;49.306;6.934;2022-08-19T07:44:57;9.95;;;8.93;;
22963;SDS011;11648;49.306;6.934;2022-08-19T07:47:25;9.15;;;8.20;;
22963;SDS011;11648;49.306;6.934;2022-08-19T07:50:12;10.07;;;9.13;;
22963;SDS011;11648;49.306;6.934;2022-08-19T07:52:39;9.95;;;8.90;;
22963;SDS011;11648;49.306;6.934;2022-08-19T07:55:08;10.18;;;8.85;;
22963;SDS011;11648;49.306;6.934;2022-08-19T07:57:56;9.30;;;8.30;;
22963;SDS011;11648;49.306;6.934;2022-08-19T08:00:23;9.60;;;8.60;;
22963;SDS011;11648;49.306;6.934;2022-08-19T08:02:50;12.05;;;10.85;;
22963;SDS011;11648;49.306;6.934;2022-08-19T08:05:22;12.52;;;9.80;;
22963;SDS011;11648;49.306;6.934;2022-08-19T08:08:10;9.98;;;9.10;;
22963;SDS011;11648;49.306;6.934;2022-08-19T08:10:57;10.07;;;9.10;;
22963;SDS011;11648;49.306;6.934;2022-08-19T08:13:25;9.57;;;8.63;;
22963;SDS011;11648;49.306;6.934;2022-08-19T08:15:53;10.10;;;9.18;;
22963;SDS011;11648;49.306;6.934;2022-08-19T08:18:22;10.48;;;9.48;;
22963;SDS011;11648;49.306;6.934;2022-08-19T08:20:55;10.73;;;9.68;;
22963;SDS011;11648;49.306;6.934;2022-08-19T08:23:23;9.52;;;8.63;;
22963;SDS011;11648;49.306;6.934;2022-08-19T08:25:54;10.48;;;9.48;;
22963;SDS011;11648;49.306;6.934;2022-08-19T08:28:24;10.52;;;9.63;;
22963;SDS011;11648;49.306;6.934;2022-08-19T08:30:55;9.63;;;8.73;;
22963;SDS011;11648;49.306;6.934;2022-08-19T08:33:23;11.50;;;10.32;;
22963;SDS011;11648;49.306;6.934;2022-08-19T08:36:01;10.93;;;9.82;;
22963;SDS011;11648;49.306;6.934;2022-08-19T08:38:31;10.82;;;9.82;;
22963;SDS011;11648;49.306;6.934;2022-08-19T08:41:08;10.45;;;9.45;;
22963;SDS011;11648;49.306;6.934;2022-08-19T08:43:46;10.57;;;9.63;;
22963;SDS011;11648;49.306;6.934;2022-08-19T08:49:31;9.95;;;8.85;;
22963;SDS011;11648;49.306;6.934;2022-08-19T08:54:46;9.25;;;8.43;;
22963;SDS011;11648;49.306;6.934;2022-08-19T09:00:08;9.40;;;8.60;;
22963;SDS011;11648;49.306;6.934;2022-08-19T09:02:41;9.55;;;8.52;;
22963;SDS011;11648;49.306;6.934;2022-08-19T09:05:10;8.45;;;7.65;;
22963;SDS011;11648;49.306;6.934;2022-08-19T09:16:09;6.82;;;6.22;;
22963;SDS011;11648;49.306;6.934;2022-08-19T09:18:49;6.18;;;5.45;;
22963;SDS011;11648;49.306;6.934;2022-08-19T09:21:20;7.32;;;5.72;;
22963;SDS011;11648;49.306;6.934;2022-08-19T09:23:58;6.95;;;6.28;;
22963;SDS011;11648;49.306;6.934;2022-08-19T09:26:26;6.93;;;6.30;;
22963;SDS011;11648;49.306;6.934;2022-08-19T09:29:13;6.80;;;6.10;;
22963;SDS011;11648;49.306;6.934;2022-08-19T09:31:40;6.88;;;6.25;;
22963;SDS011;11648;49.306;6.934;2022-08-19T09:34:07;7.90;;;5.75;;
22963;SDS011;11648;49.306;6.934;2022-08-19T09:36:47;6.07;;;5.47;;
22963;SDS011;11648;49.306;6.934;2022-08-19T09:39:20;6.00;;;5.40;;
22963;SDS011;11648;49.306;6.934;2022-08-19T09:41:48;6.57;;;5.93;;
22963;SDS011;11648;49.306;6.934;2022-08-19T09:44:16;6.57;;;5.68;;
22963;SDS011;11648;49.306;6.934;2022-08-19T09:46:44;5.10;;;4.60;;
22963;SDS011;11648;49.306;6.934;2022-08-19T09:49:14;4.78;;;3.85;;
22963;SDS011;11648;49.306;6.934;2022-08-19T09:51:44;5.53;;;4.63;;
22963;SDS011;11648;49.306;6.934;2022-08-19T09:54:17;3.97;;;3.60;;
22963;SDS011;11648;49.306;6.934;2022-08-19T09:56:49;4.05;;;3.25;;
22963;SDS011;11648;49.306;6.934;2022-08-19T09:59:16;3.85;;;3.38;;
22963;SDS011;11648;49.306;6.934;2022-08-19T10:01:43;4.93;;;3.75;;
22963;SDS011;11648;49.306;6.934;2022-08-19T10:04:11;4.72;;;4.22;;
22963;SDS011;11648;49.306;6.934;2022-08-19T10:06:46;7.47;;;4.50;;
22963;SDS011;11648;49.306;6.934;2022-08-19T10:09:18;6.82;;;4.95;;
22963;SDS011;11648;49.306;6.934;2022-08-19T10:11:59;5.65;;;5.15;;
22963;SDS011;11648;49.306;6.934;2022-08-19T10:14:28;6.47;;;4.65;;
22963;SDS011;11648;49.306;6.934;2022-08-19T10:16:55;5.30;;;4.78;;
22963;SDS011;11648;49.306;6.934;2022-08-19T10:19:24;5.28;;;4.78;;
22963;SDS011;11648;49.306;6.934;2022-08-19T10:21:54;5.53;;;5.03;;
22963;SDS011;11648;49.306;6.934;2022-08-19T10:24:26;5.50;;;4.97;;
22963;SDS011;11648;49.306;6.934;2022-08-19T10:26:54;5.25;;;4.47;;
22963;SDS011;11648;49.306;6.934;2022-08-19T10:29:25;5.00;;;4.50;;
22963;SDS011;11648;49.306;6.934;2022-08-19T10:31:59;5.70;;;4.78;;
22963;SDS011;11648;49.306;6.934;2022-08-19T10:34:29;5.70;;;4.28;;
22963;SDS011;11648;49.306;6.934;2022-08-19T10:36:57;4.40;;;4.00;;
22963;SDS011;11648;49.306;6.934;2022-08-19T10:39:28;4.60;;;4.10;;
22963;SDS011;11648;49.306;6.934;2022-08-19T10:41:58;4.82;;;4.32;;
22963;SDS011;11648;49.306;6.934;2022-08-19T10:44:25;4.88;;;3.78;;
22963;SDS011;11648;49.306;6.934;2022-08-19T10:46:58;5.22;;;4.72;;
22963;SDS011;11648;49.306;6.934;2022-08-19T10:49:25;5.50;;;5.00;;
22963;SDS011;11648;49.306;6.934;2022-08-19T10:51:54;6.07;;;5.47;;
22963;SDS011;11648;49.306;6.934;2022-08-19T10:54:46;5.07;;;4.68;;
22963;SDS011;11648;49.306;6.934;2022-08-19T10:57:34;4.78;;;3.97;;
22963;SDS011;11648;49.306;6.934;2022-08-19T11:00:21;4.05;;;3.65;;
22963;SDS011;11648;49.306;6.934;2022-08-19T11:02:50;3.92;;;3.53;;
22963;SDS011;11648;49.306;6.934;2022-08-19T11:05:17;5.10;;;4.38;;
22963;SDS011;11648;49.306;6.934;2022-08-19T11:07:45;4.40;;;4.00;;
22963;SDS011;11648;49.306;6.934;2022-08-19T11:10:13;4.00;;;3.40;;
22963;SDS011;11648;49.306;6.934;2022-08-19T11:12:46;3.70;;;3.17;;
22963;SDS011;11648;49.306;6.934;2022-08-19T11:15:13;3.85;;;3.20;;
22963;SDS011;11648;49.306;6.934;2022-08-19T11:17:40;3.70;;;3.40;;
22963;SDS011;11648;49.306;6.934;2022-08-19T11:20:10;4.15;;;3.50;;
22963;SDS011;11648;49.306;6.934;2022-08-19T11:22:38;4.43;;;3.08;;
22963;SDS011;11648;49.306;6.934;2022-08-19T11:25:08;3.30;;;3.00;;
22963;SDS011;11648;49.306;6.934;2022-08-19T11:27:37;5.28;;;2.97;;
22963;SDS011;11648;49.306;6.934;2022-08-19T11:30:08;2.67;;;2.40;;
22963;SDS011;11648;49.306;6.934;2022-08-19T11:32:39;3.38;;;2.75;;
22963;SDS011;11648;49.306;6.934;2022-08-19T11:35:12;3.30;;;3.00;;
22963;SDS011;11648;49.306;6.934;2022-08-19T11:37:39;3.92;;;3.15;;
22963;SDS011;11648;49.306;6.934;2022-08-19T11:40:07;4.05;;;3.65;;
22963;SDS011;11648;49.306;6.934;2022-08-19T11:42:34;3.40;;;3.10;;
22963;SDS011;11648;49.306;6.934;2022-08-19T11:45:20;4.10;;;3.70;;
22963;SDS011;11648;49.306;6.934;2022-08-19T11:47:47;5.55;;;4.53;;
22963;SDS011;11648;49.306;6.934;2022-08-19T11:50:15;6.72;;;4.72;;
22963;SDS011;11648;49.306;6.934;2022-08-19T11:52:42;6.75;;;4.65;;
22963;SDS011;11648;49.306;6.934;2022-08-19T11:55:12;5.03;;;4.50;;
22963;SDS011;11648;49.306;6.934;2022-08-19T11:57:39;5.57;;;5.10;;
22963;SDS011;11648;49.306;6.934;2022-08-19T12:00:10;5.50;;;5.00;;
22963;SDS011;11648;49.306;6.934;2022-08-19T12:02:40;7.93;;;5.97;;
22963;SDS011;11648;49.306;6.934;2022-08-19T12:05:07;6.30;;;5.70;;
22963;SDS011;11648;49.306;6.934;2022-08-19T12:07:38;7.03;;;6.40;;
22963;SDS011;11648;49.306;6.934;2022-08-19T12:10:06;9.27;;;6.97;;
22963;SDS011;11648;49.306;6.934;2022-08-19T12:12:33;7.75;;;7.05;;
22963;SDS011;11648;49.306;6.934;2022-08-19T12:15:00;9.82;;;7.78;;
22963;SDS011;11648;49.306;6.934;2022-08-19T12:17:28;7.93;;;7.22;;
22963;SDS011;11648;49.306;6.934;2022-08-19T12:19:55;8.93;;;7.88;;
22963;SDS011;11648;49.306;6.934;2022-08-19T12:22:22;8.38;;;7.68;;
22963;SDS011;11648;49.306;6.934;2022-08-19T12:24:49;8.38;;;7.65;;
22963;SDS011;11648;49.306;6.934;2022-08-19T12:27:18;8.18;;;7.45;;
22963;SDS011;11648;49.306;6.934;2022-08-19T12:30:02;8.63;;;7.82;;
22963;SDS011;11648;49.306;6.934;2022-08-19T12:32:30;7.85;;;7.13;;
22963;SDS011;11648;49.306;6.934;2022-08-19T12:34:57;7.78;;;7.10;;
22963;SDS011;11648;49.306;6.934;2022-08-19T12:37:23;8.30;;;7.50;;
22963;SDS011;11648;49.306;6.934;2022-08-19T12:39:50;8.40;;;7.57;;
22963;SDS011;11648;49.306;6.934;2022-08-19T12:42:17;7.78;;;7.03;;
22963;SDS011;11648;49.306;6.934;2022-08-19T12:44:44;8.70;;;7.03;;
22963;SDS011;11648;49.306;6.934;2022-08-19T12:47:11;7.35;;;6.70;;
22963;SDS011;11648;49.306;6.934;2022-08-19T12:49:41;7.60;;;6.68;;
22963;SDS011;11648;49.306;6.934;2022-08-19T12:52:21;8.00;;;6.15;;
22963;SDS011;11648;49.306;6.934;2022-08-19T12:54:51;7.13;;;6.53;;
22963;SDS011;11648;49.306;6.934;2022-08-19T12:57:24;8.35;;;7.32;;
22963;SDS011;11648;49.306;6.934;2022-08-19T13:00:04;7.95;;;6.85;;
22963;SDS011;11648;49.306;6.934;2022-08-19T13:02:37;7.45;;;6.68;;
22963;SDS011;11648;49.306;6.934;2022-08-19T13:05:06;7.60;;;6.90;;
22963;SDS011;11648;49.306;6.934;2022-08-19T13:07:35;7.32;;;6.63;;
22963;SDS011;11648;49.306;6.934;2022-08-19T13:10:04;7.50;;;6.80;;
22963;SDS011;11648;49.306;6.934;2022-08-19T13:12:32;7.55;;;6.75;;
22963;SDS011;11648;49.306;6.934;2022-08-19T13:14:59;7.60;;;6.97;;
22963;SDS011;11648;49.306;6.934;2022-08-19T13:17:26;8.48;;;6.85;;
22963;SDS011;11648;49.306;6.934;2022-08-19T13:19:53;8.55;;;7.10;;
22963;SDS011;11648;49.306;6.934;2022-08-19T13:22:20;6.80;;;6.18;;
22963;SDS011;11648;49.306;6.934;2022-08-19T13:24:46;8.05;;;6.55;;
22963;SDS011;11648;49.306;6.934;2022-08-19T13:27:14;6.75;;;6.05;;
22963;SDS011;11648;49.306;6.934;2022-08-19T13:29:41;7.78;;;5.75;;
22963;SDS011;11648;49.306;6.934;2022-08-19T13:32:28;8.77;;;6.00;;
22963;SDS011;11648;49.306;6.934;2022-08-19T13:35:15;6.43;;;5.40;;
22963;SDS011;11648;49.306;6.934;2022-08-19T13:37:43;7.43;;;5.38;;
22963;SDS011;11648;49.306;6.934;2022-08-19T13:40:20;6.20;;;5.60;;
22963;SDS011;11648;49.306;6.934;2022-08-19T13:42:50;5.95;;;5.07;;
22963;SDS011;11648;49.306;6.934;2022-08-19T13:45:19;5.65;;;5.07;;
22963;SDS011;11648;49.306;6.934;2022-08-19T13:47:49;5.65;;;5.15;;
22963;SDS011;11648;49.306;6.934;2022-08-19T13:50:26;5.82;;;5.18;;
22963;SDS011;11648;49.306;6.934;2022-08-19T13:52:54;8.48;;;5.25;;
22963;SDS011;11648;49.306;6.934;2022-08-19T13:55:22;6.30;;;4.30;;
22963;SDS011;11648;49.306;6.934;2022-08-19T13:57:51;5.20;;;4.70;;
22963;SDS011;11648;49.306;6.934;2022-08-19T14:00:20;5.20;;;4.55;;
22963;SDS011;11648;49.306;6.934;2022-08-19T14:02:50;5.25;;;4.50;;
22963;SDS011;11648;49.306;6.934;2022-08-19T14:05:18;6.25;;;4.60;;
22963;SDS011;11648;49.306;6.934;2022-08-19T14:07:46;4.60;;;4.20;;
22963;SDS011;11648;49.306;6.934;2022-08-19T14:10:14;4.95;;;4.50;;
22963;SDS011;11648;49.306;6.934;2022-08-19T14:12:42;5.88;;;4.30;;
22963;SDS011;11648;49.306;6.934;2022-08-19T14:15:10;5.97;;;4.20;;
22963;SDS011;11648;49.306;6.934;2022-08-19T14:17:39;4.30;;;3.70;;
22963;SDS011;11648;49.306;6.934;2022-08-19T14:20:08;7.82;;;4.10;;
22963;SDS011;11648;49.306;6.934;2022-08-19T14:22:43;4.57;;;3.63;;
22963;SDS011;11648;49.306;6.934;2022-08-19T14:25:13;4.53;;;3.55;;
22963;SDS011;11648;49.306;6.934;2022-08-19T14:27:44;4.68;;;3.47;;
22963;SDS011;11648;49.306;6.934;2022-08-19T14:30:12;5.38;;;3.97;;
22963;SDS011;11648;49.306;6.934;2022-08-19T14:32:41;4.72;;;3.58;;
22963;SDS011;11648;49.306;6.934;2022-08-19T14:35:12;4.95;;;3.53;;
22963;SDS011;11648;49.306;6.934;2022-08-19T14:37:41;5.88;;;3.20;;
22963;SDS011;11648;49.306;6.934;2022-08-19T14:40:22;4.43;;;3.50;;
22963;SDS011;11648;49.306;6.934;2022-08-19T14:42:53;5.10;;;3.10;;
22963;SDS011;11648;49.306;6.934;2022-08-19T14:45:26;3.58;;;2.80;;
22963;SDS011;11648;49.306;6.934;2022-08-19T14:47:54;3.60;;;3.13;;
22963;SDS011;11648;49.306;6.934;2022-08-19T14:50:22;7.50;;;3.10;;
22963;SDS011;11648;49.306;6.934;2022-08-19T14:52:49;4.20;;;2.75;;
22963;SDS011;11648;49.306;6.934;2022-08-19T14:55:16;3.85;;;3.00;;
22963;SDS011;11648;49.306;6.934;2022-08-19T14:57:44;3.40;;;2.67;;
22963;SDS011;11648;49.306;6.934;2022-08-19T15:00:12;4.60;;;2.80;;
22963;SDS011;11648;49.306;6.934;2022-08-19T15:02:40;3.92;;;2.80;;
22963;SDS011;11648;49.306;6.934;2022-08-19T15:05:07;5.43;;;2.67;;
22963;SDS011;11648;49.306;6.934;2022-08-19T15:07:35;4.53;;;2.47;;
22963;SDS011;11648;49.306;6.934;2022-08-19T15:10:03;5.18;;;2.50;;